Time,TemperatureF,DewpointF,PressureIn,WindDirection,WindDirectionDegrees,WindSpeedMPH,WindSpeedGustMPH,Humidity,HourlyPrecipIn,Conditions,Clouds,dailyrainin,SolarRadiationWatts/m^2,SoftwareType,DateUTC
2015-05-22 00:02:00,49.0,44.0,29.88,ESE,112,0.0,0.0,83,-99.99,,,-99.99,0.000000,,2015-05-22 04:02:00,
2015-05-22 00:21:00,49.0,45.0,29.87,ESE,111,0.0,0.0,85,-99.99,,,-99.99,0.000000,,2015-05-22 04:21:00,
2015-05-22 00:31:00,49.0,45.0,29.86,ESE,112,0.0,0.0,86,-99.99,,,-99.99,0.000000,,2015-05-22 04:31:00,
2015-05-22 00:42:00,49.0,45.0,29.86,ESE,112,0.0,0.0,86,-99.99,,,-99.99,0.000000,,2015-05-22 04:42:00,
2015-05-22 00:51:00,49.0,45.0,29.86,ESE,112,0.0,0.0,86,-99.99,,,-99.99,0.000000,,2015-05-22 04:51:00,
2015-05-22 01:22:00,49.0,46.0,29.86,ESE,111,0.0,0.0,88,-99.99,,,-99.99,0.000000,,2015-05-22 05:22:00,
2015-05-22 01:32:00,49.0,46.0,29.85,ESE,111,0.0,0.0,88,-99.99,,,-99.99,0.000000,,2015-05-22 05:32:00,
2015-05-22 01:51:00,49.0,46.0,29.84,ESE,113,0.0,0.0,89,-99.99,,,-99.99,0.000000,,2015-05-22 05:51:00,
2015-05-22 02:11:00,49.0,46.0,29.84,SE,129,0.0,1.0,90,-99.99,,,-99.99,0.000000,,2015-05-22 06:11:00,
2015-05-22 02:22:00,50.0,47.0,29.84,ENE,77,0.0,1.0,89,-99.99,,,-99.99,0.000000,,2015-05-22 06:22:00,
2015-05-22 02:41:00,49.0,46.0,29.83,ESE,120,0.0,0.0,90,-99.99,,,-99.99,0.000000,,2015-05-22 06:41:00,
2015-05-22 02:42:00,50.0,47.0,29.84,ESE,118,0.0,1.0,89,-99.99,,,-99.99,0.000000,,2015-05-22 06:42:00,
2015-05-22 02:52:00,50.0,47.0,29.84,ESE,118,0.0,1.0,89,-99.99,,,-99.99,0.000000,,2015-05-22 06:52:00,
2015-05-22 03:11:00,49.0,46.0,29.83,ESE,120,0.0,0.0,90,-99.99,,,-99.99,0.000000,,2015-05-22 07:11:00,
2015-05-22 03:21:00,49.0,46.0,29.83,ESE,120,0.0,0.0,90,-99.99,,,-99.99,0.000000,,2015-05-22 07:21:00,
2015-05-22 03:31:00,49.0,46.0,29.83,ESE,120,0.0,0.0,90,-99.99,,,-99.99,0.000000,,2015-05-22 07:31:00,
2015-05-22 04:03:00,49.0,47.0,29.83,SE,141,0.0,1.0,92,-99.99,,,-99.99,0.000000,,2015-05-22 08:03:00,
2015-05-22 04:11:00,49.0,47.0,29.83,SE,141,0.0,1.0,92,-99.99,,,-99.99,0.000000,,2015-05-22 08:11:00,
2015-05-22 04:21:00,49.0,47.0,29.83,SE,141,0.0,1.0,92,-99.99,,,-99.99,0.000000,,2015-05-22 08:21:00,
2015-05-22 04:41:00,49.0,47.0,29.83,SE,141,0.0,0.0,94,-99.99,,,-99.99,0.000000,,2015-05-22 08:41:00,
2015-05-22 04:51:00,49.0,47.0,29.83,SE,141,0.0,0.0,94,-99.99,,,-99.99,0.000000,,2015-05-22 08:51:00,
2015-05-22 05:11:00,49.0,48.0,29.83,NW,325,0.0,2.0,95,-99.99,,,-99.99,0.000000,,2015-05-22 09:11:00,
2015-05-22 05:21:00,49.0,48.0,29.83,East,96,0.0,0.0,95,-99.99,,,-99.99,0.000000,,2015-05-22 09:21:00,
2015-05-22 05:31:00,49.0,48.0,29.83,East,96,0.0,0.0,96,-99.99,,,-99.99,0.000000,,2015-05-22 09:31:00,
2015-05-22 05:41:00,49.0,48.0,29.83,East,96,0.0,0.0,96,-99.99,,,-99.99,0.000000,,2015-05-22 09:41:00,
2015-05-22 05:51:00,49.0,48.0,29.83,East,96,0.0,0.0,96,-99.99,,,-99.99,0.000000,,2015-05-22 09:51:00,
2015-05-22 06:03:00,49.0,48.0,29.83,East,96,0.0,0.0,96,-99.99,,,-99.99,0.000000,,2015-05-22 10:03:00,
2015-05-22 06:21:00,49.0,48.0,29.83,WNW,288,0.0,0.0,96,-99.99,,,-99.99,0.000000,,2015-05-22 10:21:00,
2015-05-22 06:52:00,50.0,49.0,29.83,WNW,286,0.0,0.0,95,-99.99,,,-99.99,0.000000,,2015-05-22 10:52:00,
2015-05-22 07:02:00,50.0,49.0,29.84,WNW,286,0.0,0.0,95,-99.99,,,-99.99,0.000000,,2015-05-22 11:02:00,
2015-05-22 07:11:00,50.0,49.0,29.84,WNW,286,0.0,0.0,95,-99.99,,,-99.99,0.000000,,2015-05-22 11:11:00,
2015-05-22 07:21:00,50.0,49.0,29.85,WNW,286,0.0,0.0,95,-99.99,,,-99.99,0.000000,,2015-05-22 11:21:00,
2015-05-22 07:52:00,50.0,49.0,29.85,WNW,286,0.0,0.0,95,-99.99,,,-99.99,0.000000,,2015-05-22 11:52:00,
2015-05-22 08:03:00,53.0,48.0,29.85,NW,316,0.0,2.0,84,-99.99,,,-99.99,0.000000,,2015-05-22 12:03:00,
2015-05-22 08:12:00,53.0,48.0,29.85,NW,316,0.0,2.0,84,-99.99,,,-99.99,0.000000,,2015-05-22 12:12:00,
2015-05-22 08:32:00,55.0,49.0,29.85,NNW,328,0.0,2.0,81,-99.99,,,-99.99,0.000000,,2015-05-22 12:32:00,
2015-05-22 08:52:00,57.0,48.0,29.85,West,269,1.0,3.0,73,-99.99,,,-99.99,0.000000,,2015-05-22 12:52:00,
2015-05-22 09:12:00,57.0,48.0,29.85,West,269,1.0,3.0,73,-99.99,,,-99.99,0.000000,,2015-05-22 13:12:00,
2015-05-22 09:21:00,57.0,48.0,29.85,West,269,1.0,3.0,73,-99.99,,,-99.99,0.000000,,2015-05-22 13:21:00,
2015-05-22 09:31:00,61.0,48.0,29.86,NE,47,1.0,5.0,62,-99.99,,,-99.99,0.000000,,2015-05-22 13:31:00,
2015-05-22 09:52:00,61.0,48.0,29.86,NE,47,1.0,5.0,62,-99.99,,,-99.99,0.000000,,2015-05-22 13:52:00,
2015-05-22 10:02:00,61.0,48.0,29.86,NE,47,1.0,5.0,62,-99.99,,,-99.99,0.000000,,2015-05-22 14:02:00,
2015-05-22 10:11:00,61.0,48.0,29.86,NE,47,1.0,5.0,62,-99.99,,,-99.99,0.000000,,2015-05-22 14:11:00,
2015-05-22 10:21:00,61.0,48.0,29.86,NE,47,1.0,5.0,62,-99.99,,,-99.99,0.000000,,2015-05-22 14:21:00,